sensor_id;sensor_type;location;lat;lon;timestamp;pressure;altitude;pressure_sealevel;temperature;humidity
75317;BME280;63913;51.492;10.368;2022-09-28T16:03:20;96586.03;;;10.02;74.08
75317;BME280;63913;51.492;10.368;2022-09-28T16:05:50;96589.47;;;9.98;75.06
75317;BME280;63913;51.492;10.368;2022-09-28T16:08:20;96593.78;;;9.89;75.53
75317;BME280;63913;51.492;10.368;2022-09-28T16:13:23;96595.59;;;9.78;75.50
75317;BME280;63913;51.492;10.368;2022-09-28T16:15:58;96596.50;;;9.71;76.53
75317;BME280;63913;51.492;10.368;2022-09-28T16:18:26;96603.38;;;9.65;76.68
75317;BME280;63913;51.492;10.368;2022-09-28T16:21:22;96608.50;;;9.65;77.50
75317;BME280;63913;51.492;10.368;2022-09-28T16:23:52;96611.97;;;9.56;77.51
75317;BME280;63913;51.492;10.368;2022-09-28T16:26:36;96614.50;;;9.62;77.25
75317;BME280;63913;51.492;10.368;2022-09-28T16:29:23;96619.66;;;9.54;78.12
75317;BME280;63913;51.492;10.368;2022-09-28T16:31:49;96613.66;;;9.52;78.54
75317;BME280;63913;51.492;10.368;2022-09-28T16:34:18;96619.66;;;9.54;78.64
75317;BME280;63913;51.492;10.368;2022-09-28T16:36:46;96622.22;;;9.51;78.30
75317;BME280;63913;51.492;10.368;2022-09-28T16:39:12;96616.25;;;9.51;78.43
75317;BME280;63913;51.492;10.368;2022-09-28T16:41:41;96626.50;;;9.49;77.31
75317;BME280;63913;51.492;10.368;2022-09-28T16:44:19;96630.81;;;9.46;77.02
75317;BME280;63913;51.492;10.368;2022-09-28T16:46:45;96629.94;;;9.41;76.76
75317;BME280;63913;51.492;10.368;2022-09-28T16:49:13;96625.72;;;9.40;77.98
75317;BME280;63913;51.492;10.368;2022-09-28T16:51:48;96639.38;;;9.33;77.80
75317;BME280;63913;51.492;10.368;2022-09-28T16:54:23;96638.56;;;9.32;78.13
75317;BME280;63913;51.492;10.368;2022-09-28T16:57:11;96641.97;;;9.25;78.62
75317;BME280;63913;51.492;10.368;2022-09-28T16:59:37;96642.84;;;9.23;79.07
75317;BME280;63913;51.492;10.368;2022-09-28T17:02:19;96643.69;;;9.18;79.15
75317;BME280;63913;51.492;10.368;2022-09-28T17:04:49;96642.84;;;9.23;78.86
75317;BME280;63913;51.492;10.368;2022-09-28T17:07:15;96646.25;;;9.18;78.32
75317;BME280;63913;51.492;10.368;2022-09-28T17:09:40;96644.56;;;9.13;78.07
75317;BME280;63913;51.492;10.368;2022-09-28T17:12:23;96651.44;;;9.05;78.89
75317;BME280;63913;51.492;10.368;2022-09-28T17:14:53;96647.16;;;8.96;78.93
75317;BME280;63913;51.492;10.368;2022-09-28T17:17:19;96651.44;;;8.93;79.50
75317;BME280;63913;51.492;10.368;2022-09-28T17:19:45;96652.31;;;8.90;78.96
75317;BME280;63913;51.492;10.368;2022-09-28T17:22:10;96648.91;;;8.91;79.81
75317;BME280;63913;51.492;10.368;2022-09-28T17:24:38;96651.47;;;8.90;79.92
75317;BME280;63913;51.492;10.368;2022-09-28T17:27:04;96654.03;;;8.91;80.40
75317;BME280;63913;51.492;10.368;2022-09-28T17:29:31;96657.44;;;8.92;79.96
75317;BME280;63913;51.492;10.368;2022-09-28T17:31:56;96665.13;;;8.87;79.97
75317;BME280;63913;51.492;10.368;2022-09-28T17:34:22;96676.22;;;8.86;79.60
75317;BME280;63913;51.492;10.368;2022-09-28T17:36:47;96677.94;;;8.87;79.80
75317;BME280;63913;51.492;10.368;2022-09-28T17:39:15;96675.38;;;8.89;79.77
75317;BME280;63913;51.492;10.368;2022-09-28T17:41:41;96683.06;;;8.89;79.49
75317;BME280;63913;51.492;10.368;2022-09-28T17:44:06;96675.38;;;8.89;79.75
75317;BME280;63913;51.492;10.368;2022-09-28T17:46:34;96688.16;;;8.86;79.79
75317;BME280;63913;51.492;10.368;2022-09-28T17:49:01;96688.19;;;8.81;79.97
75317;BME280;63913;51.492;10.368;2022-09-28T17:51:29;96689.91;;;8.73;80.41
75317;BME280;63913;51.492;10.368;2022-09-28T17:53:56;96692.44;;;8.64;80.43
75317;BME280;63913;51.492;10.368;2022-09-28T17:56:23;96695.00;;;8.68;79.93
75317;BME280;63913;51.492;10.368;2022-09-28T17:58:48;96695.88;;;8.64;79.62
75317;BME280;63913;51.492;10.368;2022-09-28T18:01:14;96691.59;;;8.60;80.15
75317;BME280;63913;51.492;10.368;2022-09-28T18:03:39;96693.31;;;8.63;80.61
75317;BME280;63913;51.492;10.368;2022-09-28T18:06:06;96693.31;;;8.66;80.79
75317;BME280;63913;51.492;10.368;2022-09-28T18:08:32;96698.44;;;8.67;80.65
75317;BME280;63913;51.492;10.368;2022-09-28T18:10:58;96694.16;;;8.60;80.47
75317;BME280;63913;51.492;10.368;2022-09-28T18:13:25;96702.69;;;8.61;80.11
75317;BME280;63913;51.492;10.368;2022-09-28T18:15:51;96699.28;;;8.57;80.46
75317;BME280;63913;51.492;10.368;2022-09-28T18:18:16;96700.13;;;8.50;80.37
75317;BME280;63913;51.492;10.368;2022-09-28T18:20:42;96704.41;;;8.50;79.96
75317;BME280;63913;51.492;10.368;2022-09-28T18:23:07;96705.25;;;8.49;80.75
75317;BME280;63913;51.492;10.368;2022-09-28T18:25:33;96707.81;;;8.49;80.52
75317;BME280;63913;51.492;10.368;2022-09-28T18:27:58;96707.81;;;8.49;80.90
75317;BME280;63913;51.492;10.368;2022-09-28T18:30:25;96709.50;;;8.45;80.66
75317;BME280;63913;51.492;10.368;2022-09-28T18:32:51;96702.69;;;8.46;80.38
75317;BME280;63913;51.492;10.368;2022-09-28T18:35:17;96713.75;;;8.45;80.82
75317;BME280;63913;51.492;10.368;2022-09-28T18:37:42;96717.19;;;8.39;80.87
75317;BME280;63913;51.492;10.368;2022-09-28T18:40:09;96717.19;;;8.34;80.93
75317;BME280;63913;51.492;10.368;2022-09-28T18:42:36;96712.06;;;8.33;81.39
75317;BME280;63913;51.492;10.368;2022-09-28T18:45:03;96719.69;;;8.30;81.36
75317;BME280;63913;51.492;10.368;2022-09-28T18:47:29;96723.16;;;8.35;80.80
75317;BME280;63913;51.492;10.368;2022-09-28T18:49:55;96729.13;;;8.32;80.98
75317;BME280;63913;51.492;10.368;2022-09-28T18:52:22;96733.31;;;8.27;81.02
75317;BME280;63913;51.492;10.368;2022-09-28T18:54:48;96736.75;;;8.25;80.70
75317;BME280;63913;51.492;10.368;2022-09-28T18:57:14;96738.44;;;8.21;80.81
75317;BME280;63913;51.492;10.368;2022-09-28T18:59:39;96738.44;;;8.18;80.85
75317;BME280;63913;51.492;10.368;2022-09-28T19:02:05;96741.84;;;8.17;80.54
75317;BME280;63913;51.492;10.368;2022-09-28T19:04:30;96744.41;;;8.22;80.74
75317;BME280;63913;51.492;10.368;2022-09-28T19:06:56;96741.00;;;8.21;81.08
75317;BME280;63913;51.492;10.368;2022-09-28T19:09:22;96737.56;;;8.21;80.67
75317;BME280;63913;51.492;10.368;2022-09-28T19:11:48;96742.69;;;8.21;81.61
75317;BME280;63913;51.492;10.368;2022-09-28T19:14:14;96741.84;;;8.28;80.88
75317;BME280;63913;51.492;10.368;2022-09-28T19:16:40;96742.72;;;8.25;80.75
75317;BME280;63913;51.492;10.368;2022-09-28T19:19:07;96743.56;;;8.23;81.11
75317;BME280;63913;51.492;10.368;2022-09-28T19:21:32;96735.88;;;8.18;80.56
75317;BME280;63913;51.492;10.368;2022-09-28T19:24:01;96740.97;;;8.09;81.20
75317;BME280;63913;51.492;10.368;2022-09-28T19:26:27;96737.53;;;8.04;80.78
75317;BME280;63913;51.492;10.368;2022-09-28T19:28:55;96742.63;;;7.96;81.16
75317;BME280;63913;51.492;10.368;2022-09-28T19:31:21;96740.03;;;7.89;80.14
75317;BME280;63913;51.492;10.368;2022-09-28T19:33:46;96739.97;;;7.75;79.81
75317;BME280;63913;51.492;10.368;2022-09-28T19:36:18;96742.53;;;7.80;80.74
75317;BME280;63913;51.492;10.368;2022-09-28T19:38:44;96745.94;;;7.76;79.11
75317;BME280;63913;51.492;10.368;2022-09-28T19:41:14;96745.03;;;7.71;79.23
75317;BME280;63913;51.492;10.368;2022-09-28T19:43:59;96747.59;;;7.61;78.89
75317;BME280;63913;51.492;10.368;2022-09-28T19:46:27;96752.59;;;7.46;79.32
75317;BME280;63913;51.492;10.368;2022-09-28T19:48:53;96756.78;;;7.38;78.87
75317;BME280;63913;51.492;10.368;2022-09-28T19:51:18;96761.00;;;7.30;79.63
75317;BME280;63913;51.492;10.368;2022-09-28T19:53:44;96756.75;;;7.29;79.68
75317;BME280;63913;51.492;10.368;2022-09-28T19:56:09;96760.94;;;7.18;78.97
75317;BME280;63913;51.492;10.368;2022-09-28T19:58:35;96760.88;;;7.10;79.39
75317;BME280;63913;51.492;10.368;2022-09-28T20:01:05;96768.50;;;7.04;79.88
75317;BME280;63913;51.492;10.368;2022-09-28T20:03:32;96765.91;;;7.01;79.70
75317;BME280;63913;51.492;10.368;2022-09-28T20:05:58;96767.59;;;6.99;79.56
75317;BME280;63913;51.492;10.368;2022-09-28T20:08:24;96770.94;;;6.92;79.24
75317;BME280;63913;51.492;10.368;2022-09-28T20:10:51;96770.00;;;6.82;79.24
75317;BME280;63913;51.492;10.368;2022-09-28T20:13:21;96781.00;;;6.72;79.22
75317;BME280;63913;51.492;10.368;2022-09-28T20:15:47;96777.50;;;6.63;79.16
75317;BME280;63913;51.492;10.368;2022-09-28T20:18:13;96780.84;;;6.56;80.00
75317;BME280;63913;51.492;10.368;2022-09-28T20:20:39;96778.19;;;6.49;79.28
75317;BME280;63913;51.492;10.368;2022-09-28T20:23:07;96783.31;;;6.49;79.88
75317;BME280;63913;51.492;10.368;2022-09-28T20:25:34;96785.00;;;6.46;79.92
75317;BME280;63913;51.492;10.368;2022-09-28T20:28:00;96787.59;;;6.52;79.70
75317;BME280;63913;51.492;10.368;2022-09-28T20:30:25;96787.53;;;6.44;79.27
75317;BME280;63913;51.492;10.368;2022-09-28T20:32:51;96786.72;;;6.47;79.85
75317;BME280;63913;51.492;10.368;2022-09-28T20:35:16;96794.25;;;6.36;79.48
75317;BME280;63913;51.492;10.368;2022-09-28T20:37:41;96790.78;;;6.30;79.67
75317;BME280;63913;51.492;10.368;2022-09-28T20:40:08;96794.84;;;6.17;79.80
75317;BME280;63913;51.492;10.368;2022-09-28T20:42:36;96794.78;;;6.09;79.88
75317;BME280;63913;51.492;10.368;2022-09-28T20:45:02;96792.19;;;6.06;79.89
75317;BME280;63913;51.492;10.368;2022-09-28T20:47:27;96794.72;;;6.05;79.98
75317;BME280;63913;51.492;10.368;2022-09-28T20:49:53;96802.44;;;6.08;79.97
75317;BME280;63913;51.492;10.368;2022-09-28T20:52:18;96795.59;;;6.08;79.63
75317;BME280;63913;51.492;10.368;2022-09-28T20:54:44;96796.31;;;5.97;79.59
75317;BME280;63913;51.492;10.368;2022-09-28T20:57:09;96803.94;;;5.95;79.76
75317;BME280;63913;51.492;10.368;2022-09-28T20:59:47;96799.50;;;5.82;79.91
75317;BME280;63913;51.492;10.368;2022-09-28T21:02:14;96791.00;;;5.82;80.22
75317;BME280;63913;51.492;10.368;2022-09-28T21:04:40;96799.56;;;5.87;80.08
75317;BME280;63913;51.492;10.368;2022-09-28T21:07:07;96801.34;;;5.92;79.70
75317;BME280;63913;51.492;10.368;2022-09-28T21:09:32;96798.78;;;5.89;79.99
75317;BME280;63913;51.492;10.368;2022-09-28T21:11:57;96804.56;;;5.79;79.71
75317;BME280;63913;51.492;10.368;2022-09-28T21:14:24;96807.13;;;5.81;80.20
75317;BME280;63913;51.492;10.368;2022-09-28T21:16:50;96800.38;;;5.84;79.51
75317;BME280;63913;51.492;10.368;2022-09-28T21:19:18;96806.31;;;5.85;80.15
75317;BME280;63913;51.492;10.368;2022-09-28T21:21:45;96808.88;;;5.83;79.74
75317;BME280;63913;51.492;10.368;2022-09-28T21:24:11;96812.28;;;5.84;79.70
75317;BME280;63913;51.492;10.368;2022-09-28T21:26:36;96815.56;;;5.76;79.27
75317;BME280;63913;51.492;10.368;2022-09-28T21:29:05;96824.91;;;5.74;79.66
75317;BME280;63913;51.492;10.368;2022-09-28T21:31:41;96819.63;;;5.62;79.55
75317;BME280;63913;51.492;10.368;2022-09-28T21:34:17;96830.72;;;5.64;79.82
75317;BME280;63913;51.492;10.368;2022-09-28T21:36:44;96821.28;;;5.60;79.72
75317;BME280;63913;51.492;10.368;2022-09-28T21:39:10;96820.38;;;5.55;79.93
75317;BME280;63913;51.492;10.368;2022-09-28T21:41:36;96832.25;;;5.55;80.64
75317;BME280;63913;51.492;10.368;2022-09-28T21:44:01;96832.25;;;5.55;80.43
75317;BME280;63913;51.492;10.368;2022-09-28T21:46:26;96835.59;;;5.49;80.27
75317;BME280;63913;51.492;10.368;2022-09-28T21:48:58;96823.72;;;5.51;80.28
75317;BME280;63913;51.492;10.368;2022-09-28T21:51:23;96832.16;;;5.47;80.51
75317;BME280;63913;51.492;10.368;2022-09-28T21:53:48;96833.06;;;5.51;80.81
75317;BME280;63913;51.492;10.368;2022-09-28T21:56:14;96827.97;;;5.51;80.40
75317;BME280;63913;51.492;10.368;2022-09-28T21:58:39;96834.72;;;5.49;80.61
75317;BME280;63913;51.492;10.368;2022-09-28T22:03:35;96838.00;;;5.40;80.73
75317;BME280;63913;51.492;10.368;2022-09-28T22:06:04;96837.16;;;5.41;80.57
75317;BME280;63913;51.492;10.368;2022-09-28T22:08:30;96839.63;;;5.35;80.32
75317;BME280;63913;51.492;10.368;2022-09-28T22:10:57;96842.25;;;5.41;80.29
75317;BME280;63913;51.492;10.368;2022-09-28T22:13:30;96843.94;;;5.41;80.93
75317;BME280;63913;51.492;10.368;2022-09-28T22:15:56;96843.00;;;5.34;80.11
75317;BME280;63913;51.492;10.368;2022-09-28T22:18:23;96843.75;;;5.27;80.44
75317;BME280;63913;51.492;10.368;2022-09-28T22:21:00;96848.00;;;5.29;80.36
75317;BME280;63913;51.492;10.368;2022-09-28T22:23:26;96852.38;;;5.36;79.99
75317;BME280;63913;51.492;10.368;2022-09-28T22:26:06;96848.00;;;5.29;80.53
75317;BME280;63913;51.492;10.368;2022-09-28T22:28:32;96841.19;;;5.27;80.57
75317;BME280;63913;51.492;10.368;2022-09-28T22:30:58;96850.56;;;5.29;80.41
75317;BME280;63913;51.492;10.368;2022-09-28T22:33:24;96850.47;;;5.23;80.43
75317;BME280;63913;51.492;10.368;2022-09-28T22:35:49;96851.31;;;5.24;80.55
75317;BME280;63913;51.492;10.368;2022-09-28T22:38:16;96860.59;;;5.19;80.64
75317;BME280;63913;51.492;10.368;2022-09-28T22:40:53;96854.53;;;5.14;81.22
75317;BME280;63913;51.492;10.368;2022-09-28T22:43:20;96848.75;;;5.22;80.61
75317;BME280;63913;51.492;10.368;2022-09-28T22:45:46;96859.03;;;5.27;80.86
75317;BME280;63913;51.492;10.368;2022-09-28T22:48:12;96850.53;;;5.26;80.99
75317;BME280;63913;51.492;10.368;2022-09-28T22:50:37;96857.38;;;5.30;80.58
75317;BME280;63913;51.492;10.368;2022-09-28T22:53:04;96851.34;;;5.25;81.07
75317;BME280;63913;51.492;10.368;2022-09-28T22:55:29;96860.63;;;5.22;80.81
75317;BME280;63913;51.492;10.368;2022-09-28T22:57:58;96859.00;;;5.25;81.39
75317;BME280;63913;51.492;10.368;2022-09-28T23:00:24;96856.47;;;5.28;81.07
75317;BME280;63913;51.492;10.368;2022-09-28T23:02:49;96857.44;;;5.33;81.39
75317;BME280;63913;51.492;10.368;2022-09-28T23:05:15;96854.09;;;5.39;81.98
75317;BME280;63913;51.492;10.368;2022-09-28T23:07:41;96855.13;;;5.49;81.82
75317;BME280;63913;51.492;10.368;2022-09-28T23:10:07;96860.25;;;5.50;81.87
75317;BME280;63913;51.492;10.368;2022-09-28T23:12:33;96856.03;;;5.54;82.32
75317;BME280;63913;51.492;10.368;2022-09-28T23:14:59;96855.25;;;5.58;82.25
75317;BME280;63913;51.492;10.368;2022-09-28T23:17:25;96863.75;;;5.58;82.71
75317;BME280;63913;51.492;10.368;2022-09-28T23:19:50;96852.78;;;5.64;82.54
75317;BME280;63913;51.492;10.368;2022-09-28T23:22:15;96859.63;;;5.66;82.58
75317;BME280;63913;51.492;10.368;2022-09-28T23:24:40;96860.59;;;5.74;82.35
75317;BME280;63913;51.492;10.368;2022-09-28T23:27:06;96862.31;;;5.77;81.91
75317;BME280;63913;51.492;10.368;2022-09-28T23:29:32;96860.59;;;5.76;81.34
75317;BME280;63913;51.492;10.368;2022-09-28T23:31:57;96856.47;;;5.84;81.45
75317;BME280;63913;51.492;10.368;2022-09-28T23:34:22;96851.38;;;5.84;81.12
75317;BME280;63913;51.492;10.368;2022-09-28T23:36:50;96857.25;;;5.79;81.22
75317;BME280;63913;51.492;10.368;2022-09-28T23:39:15;96852.78;;;5.64;81.12
75317;BME280;63913;51.492;10.368;2022-09-28T23:41:41;96857.84;;;5.61;81.75
75317;BME280;63913;51.492;10.368;2022-09-28T23:44:06;96863.69;;;5.54;81.75
75317;BME280;63913;51.492;10.368;2022-09-28T23:46:32;96863.66;;;5.52;81.93
75317;BME280;63913;51.492;10.368;2022-09-28T23:48:57;96860.31;;;5.55;82.09
75317;BME280;63913;51.492;10.368;2022-09-28T23:51:22;96853.44;;;5.49;81.92
75317;BME280;63913;51.492;10.368;2022-09-28T23:53:48;96848.38;;;5.51;81.71
75317;BME280;63913;51.492;10.368;2022-09-28T23:56:13;96846.56;;;5.45;82.22
75317;BME280;63913;51.492;10.368;2022-09-28T23:58:39;96849.06;;;5.44;81.94
